Christine Anderson — WCN2606 — position and weather

sailwx.info

Track history (hours):
 
Tides and Currents Weather Stations Pressure Air Temp Water Temp Dewpoint Dewpoint Depression Visibility Wind Speed Wind Dir Waves Ship Positions

Christine Anderson

Owner: PIERCE, COUNTY OF, TACOMA, WA. More information available from US FCC via Universal Licensing System and Coast Guard Vessel Documentation Center.

Last reported at 2014-Oct-13 20:20 UTC. Time now 2014-Oct-20 18:01 UTC.
Position N 47°10' W 122°36'.

MMSI: 366659730.

Date/timePositionNaut miles runAvg speedWind from/ knotsBaromVisibWave heightAir tempDewpointWater temp
2014-Oct-13 20:20N 47°10' W 122°36'2 3.1
2014-Oct-13 19:33N 47°11' W 122°40'2 1.7
2014-Oct-13 18:06N 47°10' W 122°36'2 4.6
2014-Oct-13 17:33N 47°11' W 122°40'0 0.0
2014-Oct-13 16:34N 47°11' W 122°40'0 0.0
2014-Oct-13 15:34N 47°11' W 122°40'0 0.1
2014-Oct-13 14:33N 47°11' W 122°40'2 2.2
2014-Oct-13 13:33N 47°10' W 122°37'0 0.0
2014-Oct-13 05:33N 47°10' W 122°36'0 0.0
2014-Oct-13 04:31N 47°10' W 122°36'0 0.0
2014-Oct-13 03:33N 47°10' W 122°36'0 0.4
2014-Oct-13 02:33N 47°11' W 122°37'0 0.4
2014-Oct-13 01:33N 47°11' W 122°37'2 2.3
2014-Oct-13 00:32N 47°11' W 122°41'0 0.0
2014-Oct-12 23:33N 47°11' W 122°41'0 0.0
2014-Oct-12 22:25N 47°11' W 122°41'0 0.0
2014-Oct-12 21:26N 47°11' W 122°41'3 3.4
2014-Oct-12 20:32N 47°10' W 122°36'3 3.0
2014-Oct-12 19:31N 47°11' W 122°41'3 3.2
2014-Oct-12 18:33N 47°10' W 122°36'2 2.5
2014-Oct-12 17:33N 47°11' W 122°40'0 0.1
2014-Oct-12 16:34N 47°11' W 122°40'0 0.1
2014-Oct-12 15:34N 47°11' W 122°40'0 0.0
2014-Oct-12 14:33N 47°11' W 122°40'2 2.5
2014-Oct-12 13:33N 47°10' W 122°36'0 0.0
2014-Oct-12 12:31N 47°10' W 122°36'2 0.3
2014-Oct-12 05:33N 47°11' W 122°40'2 2.4
2014-Oct-12 04:33N 47°10' W 122°36'0 0.0
2014-Oct-12 03:33N 47°10' W 122°36'1 0.6
2014-Oct-12 02:33N 47°11' W 122°37'0 0.3
2014-Oct-12 01:32N 47°11' W 122°37'3 2.6
2014-Oct-12 00:33N 47°11' W 122°41'0 0.0
2014-Oct-11 23:33N 47°11' W 122°41'0 0.0
2014-Oct-11 22:27N 47°11' W 122°41'0 0.0
2014-Oct-11 21:33N 47°11' W 122°41'3 3.0
2014-Oct-11 20:33N 47°10' W 122°36'3 3.0
2014-Oct-11 19:33N 47°11' W 122°41'3 2.6
2014-Oct-11 18:24N 47°10' W 122°36'3 3.5
2014-Oct-11 17:33N 47°11' W 122°41'0 0.0
2014-Oct-11 16:33N 47°11' W 122°41'1 0.6
2014-Oct-11 15:33N 47°11' W 122°40'0 0.0
2014-Oct-11 14:33N 47°11' W 122°40'2 2.3
2014-Oct-11 13:31N 47°10' W 122°36'0 0.0
2014-Oct-11 06:05N 47°10' W 122°36'3 5.1
2014-Oct-11 05:34N 47°11' W 122°40'3 2.4
2014-Oct-11 04:28N 47°10' W 122°36'0 0.0
2014-Oct-11 03:33N 47°10' W 122°36'0 0.0
2014-Oct-11 02:30N 47°10' W 122°36'0 0.0
2014-Oct-11 01:30N 47°10' W 122°36'3 2.8
2014-Oct-11 00:33N 47°11' W 122°40'0 0.0
2014-Oct-10 23:33N 47°11' W 122°40'0 0.2
2014-Oct-10 22:33N 47°11' W 122°40'1 0.5
2014-Oct-10 21:33N 47°11' W 122°41'3 3.1
2014-Oct-10 20:34N 47°10' W 122°36'3 3.0
2014-Oct-10 19:33N 47°11' W 122°41'3 3.0
2014-Oct-10 18:33N 47°10' W 122°36'3 2.5
2014-Oct-10 17:33N 47°11' W 122°40'0 0.1
2014-Oct-10 16:33N 47°11' W 122°40'1 0.7
2014-Oct-10 15:34N 47°11' W 122°41'0 0.0
2014-Oct-10 14:33N 47°11' W 122°41'3 3.1
2014-Oct-10 13:34N 47°11' W 122°36'0 0.2
2014-Oct-10 12:33N 47°10' W 122°36'1 0.2
2014-Oct-10 04:33N 47°10' W 122°38'1 1.1
2014-Oct-10 03:33N 47°11' W 122°37'1 1.2
2014-Oct-10 02:33N 47°11' W 122°39'2 2.1
2014-Oct-10 01:33N 47°10' W 122°36'1 1.2
2014-Oct-10 00:33N 47°11' W 122°38'2 1.8
2014-Oct-09 23:33N 47°11' W 122°41'0 0.0
2014-Oct-09 22:33N 47°11' W 122°41'0 0.0
2014-Oct-09 21:33N 47°11' W 122°41'3 3.0
2014-Oct-09 20:33N 47°10' W 122°36'3 2.7
2014-Oct-09 19:33N 47°11' W 122°40'3 2.6
2014-Oct-09 18:32N 47°10' W 122°36'3 2.6
2014-Oct-09 17:33N 47°11' W 122°40'0 0.1
2014-Oct-09 16:33N 47°11' W 122°40'0 0.0
2014-Oct-09 15:33N 47°11' W 122°40'0 0.2
2014-Oct-09 14:33N 47°11' W 122°40'2 2.3
2014-Oct-09 13:33N 47°11' W 122°36'0 0.1
2014-Oct-09 12:33N 47°10' W 122°36'0 0.0
2014-Oct-09 03:16N 47°10' W 122°36'0 0.3
2014-Oct-09 02:33N 47°11' W 122°36'0 0.2
2014-Oct-09 01:34N 47°11' W 122°37'3 2.3
2014-Oct-09 00:26N 47°11' W 122°40'0 0.1
2014-Oct-08 23:29N 47°11' W 122°41'0 0.0
2014-Oct-08 22:32N 47°11' W 122°41'0 0.0
2014-Oct-08 21:33N 47°11' W 122°41'3 3.0
2014-Oct-08 20:32N 47°10' W 122°36'3 2.6
2014-Oct-08 19:34N 47°11' W 122°40'3 2.5
2014-Oct-08 18:33N 47°10' W 122°36'2 2.5
2014-Oct-08 17:33N 47°11' W 122°40'0 0.1
2014-Oct-08 16:33N 47°11' W 122°40'0 0.1
2014-Oct-08 15:34N 47°11' W 122°40'0 0.2
2014-Oct-08 14:32N 47°11' W 122°40'3 2.6
2014-Oct-08 13:33N 47°10' W 122°36'0 0.0
2014-Oct-08 12:34N 47°10' W 122°36'0 0.0
2014-Oct-08 03:21N 47°10' W 122°36'0 0.6
2014-Oct-08 02:33N 47°11' W 122°37'0 0.4
2014-Oct-08 01:32N 47°11' W 122°36'3 3.0
2014-Oct-08 00:34N 47°11' W 122°41'0 0.0
2014-Oct-07 23:30N 47°11' W 122°41'0 0.0
2014-Oct-07 22:32N 47°11' W 122°41'0 0.0
2014-Oct-07 21:32N 47°11' W 122°41'3 3.0
2014-Oct-07 20:31N 47°10' W 122°36'2 2.4
2014-Oct-07 19:33N 47°11' W 122°40'2 2.3
2014-Oct-07 18:33N 47°10' W 122°36'1 0.8
2014-Oct-07 17:33N 47°10' W 122°37'2 2.4
2014-Oct-07 16:33N 47°11' W 122°41'0 0.0
2014-Oct-07 15:33N 47°11' W 122°41'0 0.0
2014-Oct-07 14:33N 47°11' W 122°41'3 3.0
2014-Oct-07 13:33N 47°10' W 122°36'0 0.0
2014-Oct-07 03:20N 47°10' W 122°36'1 0.7
2014-Oct-07 02:33N 47°11' W 122°37'0 0.4
2014-Oct-07 01:32N 47°11' W 122°36'3 2.9
2014-Oct-07 00:33N 47°11' W 122°41'0 0.0
2014-Oct-06 23:33N 47°11' W 122°41'0 0.0
2014-Oct-06 22:29N 47°11' W 122°41'0 0.0
2014-Oct-06 21:33N 47°11' W 122°41'3 2.9
2014-Oct-06 20:30N 47°10' W 122°36'2 2.6
2014-Oct-06 19:33N 47°11' W 122°40'2 2.5
2014-Oct-06 18:33N 47°10' W 122°36'2 2.4
2014-Oct-06 17:33N 47°11' W 122°40'0 0.5
2014-Oct-06 16:33N 47°11' W 122°40'0 0.4
2014-Oct-06 15:33N 47°11' W 122°40'0 0.1
2014-Oct-06 14:33N 47°11' W 122°40'2 2.4
2014-Oct-06 13:33N 47°10' W 122°36'0 0.0
2014-Oct-06 12:28N 47°10' W 122°36'0 0.0
2014-Oct-06 11:30N 47°10' W 122°36'0 0.0
2014-Oct-06 10:32N 47°10' W 122°36'0 0.0
2014-Oct-06 09:18N 47°10' W 122°36'0 0.0
2014-Oct-06 06:19N 47°10' W 122°36'1 0.4
2014-Oct-06 04:33N 47°10' W 122°37'1 0.6
2014-Oct-06 03:16N 47°10' W 122°36'1 0.9
2014-Oct-06 02:33N 47°11' W 122°37'0 0.2
2014-Oct-06 01:33N 47°10' W 122°37'3 2.6
2014-Oct-06 00:33N 47°11' W 122°41'0 0.0
2014-Oct-05 23:33N 47°11' W 122°41'0 0.0
2014-Oct-05 22:26N 47°11' W 122°41'0 0.0
2014-Oct-05 21:32N 47°11' W 122°41'3 3.1
2014-Oct-05 20:33N 47°10' W 122°36'3 2.6
2014-Oct-05 19:33N 47°11' W 122°40'3 2.5
2014-Oct-05 18:31N 47°10' W 122°36'3 2.6
2014-Oct-05 17:32N 47°11' W 122°40'0 0.1
2014-Oct-05 16:33N 47°11' W 122°40'0 0.1
2014-Oct-05 15:33N 47°11' W 122°40'0 0.0
2014-Oct-05 14:33N 47°11' W 122°40'2 2.2
2014-Oct-05 13:29N 47°10' W 122°36'0 0.0
2014-Oct-05 12:32N 47°10' W 122°36'0 0.0
2014-Oct-05 11:32N 47°10' W 122°36'0 0.0
2014-Oct-05 10:33N 47°10' W 122°36'0 0.0
2014-Oct-05 09:33N 47°10' W 122°36'0 0.0
2014-Oct-05 08:32N 47°10' W 122°36'0 0.0
2014-Oct-05 07:27N 47°10' W 122°36'0 0.0
2014-Oct-05 06:33N 47°10' W 122°36'3 2.5
2014-Oct-05 05:33N 47°11' W 122°40'3 2.5
2014-Oct-05 04:33N 47°10' W 122°36'0 0.1
2014-Oct-05 03:15N 47°11' W 122°36'0 0.5
2014-Oct-05 02:32N 47°11' W 122°37'0 0.0
2014-Oct-05 01:33N 47°11' W 122°37'3 2.7
2014-Oct-05 00:33N 47°11' W 122°41'0 0.0
2014-Oct-04 23:33N 47°11' W 122°41'0 0.0
2014-Oct-04 22:33N 47°11' W 122°41'0 0.0
2014-Oct-04 21:32N 47°11' W 122°41'3 3.1
2014-Oct-04 20:33N 47°10' W 122°36'3 2.6
2014-Oct-04 19:33N 47°11' W 122°40'3 2.0
2014-Oct-04 18:15N 47°10' W 122°36'2 3.6
2014-Oct-04 17:33N 47°11' W 122°40'0 0.1
2014-Oct-04 16:33N 47°11' W 122°40'0 0.3
2014-Oct-04 15:32N 47°11' W 122°40'0 0.2
2014-Oct-04 14:32N 47°11' W 122°40'3 2.5
2014-Oct-04 13:31N 47°10' W 122°36'0 0.0
2014-Oct-04 11:32N 47°10' W 122°36'0 0.0
2014-Oct-04 10:33N 47°10' W 122°36'0 0.0
2014-Oct-04 09:33N 47°10' W 122°36'0 0.0
2014-Oct-04 08:24N 47°10' W 122°36'0 0.0
2014-Oct-04 07:33N 47°10' W 122°36'3 1.3
2014-Oct-04 05:33N 47°11' W 122°40'3 2.3
2014-Oct-04 04:28N 47°10' W 122°36'0 0.0
2014-Oct-04 03:33N 47°10' W 122°36'0 0.2
2014-Oct-04 02:33N 47°11' W 122°36'0 0.0
2014-Oct-04 01:33N 47°11' W 122°37'3 2.8
2014-Oct-04 00:33N 47°11' W 122°41'0 0.1
2014-Oct-03 23:33N 47°11' W 122°40'0 0.1
2014-Oct-03 22:33N 47°11' W 122°41'0 0.0
2014-Oct-03 21:32N 47°11' W 122°41'  
Track history (hours):
 
Tides and Currents Weather Stations Pressure Air Temp Water Temp Dewpoint Dewpoint Depression Visibility Wind Speed Wind Dir Waves Ship Positions

Christine Anderson

Owner: PIERCE, COUNTY OF, TACOMA, WA. More information available from US FCC via Universal Licensing System and Coast Guard Vessel Documentation Center.

Last reported at 2014-Oct-13 20:20 UTC. Time now 2014-Oct-20 18:01 UTC.
Position N 47°10' W 122°36'.

MMSI: 366659730.

Date/timePositionNaut miles runAvg speedWind from/ knotsBaromVisibWave heightAir tempDewpointWater temp
2014-Oct-13 20:20N 47°10' W 122°36'2 3.1
2014-Oct-13 19:33N 47°11' W 122°40'2 1.7
2014-Oct-13 18:06N 47°10' W 122°36'2 4.6
2014-Oct-13 17:33N 47°11' W 122°40'0 0.0
2014-Oct-13 16:34N 47°11' W 122°40'0 0.0
2014-Oct-13 15:34N 47°11' W 122°40'0 0.1
2014-Oct-13 14:33N 47°11' W 122°40'2 2.2
2014-Oct-13 13:33N 47°10' W 122°37'0 0.0
2014-Oct-13 05:33N 47°10' W 122°36'0 0.0
2014-Oct-13 04:31N 47°10' W 122°36'0 0.0
2014-Oct-13 03:33N 47°10' W 122°36'0 0.4
2014-Oct-13 02:33N 47°11' W 122°37'0 0.4
2014-Oct-13 01:33N 47°11' W 122°37'2 2.3
2014-Oct-13 00:32N 47°11' W 122°41'0 0.0
2014-Oct-12 23:33N 47°11' W 122°41'0 0.0
2014-Oct-12 22:25N 47°11' W 122°41'0 0.0
2014-Oct-12 21:26N 47°11' W 122°41'3 3.4
2014-Oct-12 20:32N 47°10' W 122°36'3 3.0
2014-Oct-12 19:31N 47°11' W 122°41'3 3.2
2014-Oct-12 18:33N 47°10' W 122°36'2 2.5
2014-Oct-12 17:33N 47°11' W 122°40'0 0.1
2014-Oct-12 16:34N 47°11' W 122°40'0 0.1
2014-Oct-12 15:34N 47°11' W 122°40'0 0.0
2014-Oct-12 14:33N 47°11' W 122°40'2 2.5
2014-Oct-12 13:33N 47°10' W 122°36'0 0.0
2014-Oct-12 12:31N 47°10' W 122°36'2 0.3
2014-Oct-12 05:33N 47°11' W 122°40'2 2.4
2014-Oct-12 04:33N 47°10' W 122°36'0 0.0
2014-Oct-12 03:33N 47°10' W 122°36'1 0.6
2014-Oct-12 02:33N 47°11' W 122°37'0 0.3
2014-Oct-12 01:32N 47°11' W 122°37'3 2.6
2014-Oct-12 00:33N 47°11' W 122°41'0 0.0
2014-Oct-11 23:33N 47°11' W 122°41'0 0.0
2014-Oct-11 22:27N 47°11' W 122°41'0 0.0
2014-Oct-11 21:33N 47°11' W 122°41'3 3.0
2014-Oct-11 20:33N 47°10' W 122°36'3 3.0
2014-Oct-11 19:33N 47°11' W 122°41'3 2.6
2014-Oct-11 18:24N 47°10' W 122°36'3 3.5
2014-Oct-11 17:33N 47°11' W 122°41'0 0.0
2014-Oct-11 16:33N 47°11' W 122°41'1 0.6
2014-Oct-11 15:33N 47°11' W 122°40'0 0.0
2014-Oct-11 14:33N 47°11' W 122°40'2 2.3
2014-Oct-11 13:31N 47°10' W 122°36'0 0.0
2014-Oct-11 06:05N 47°10' W 122°36'3 5.1
2014-Oct-11 05:34N 47°11' W 122°40'3 2.4
2014-Oct-11 04:28N 47°10' W 122°36'0 0.0
2014-Oct-11 03:33N 47°10' W 122°36'0 0.0
2014-Oct-11 02:30N 47°10' W 122°36'0 0.0
2014-Oct-11 01:30N 47°10' W 122°36'3 2.8
2014-Oct-11 00:33N 47°11' W 122°40'0 0.0
2014-Oct-10 23:33N 47°11' W 122°40'0 0.2
2014-Oct-10 22:33N 47°11' W 122°40'1 0.5
2014-Oct-10 21:33N 47°11' W 122°41'3 3.1
2014-Oct-10 20:34N 47°10' W 122°36'3 3.0
2014-Oct-10 19:33N 47°11' W 122°41'3 3.0
2014-Oct-10 18:33N 47°10' W 122°36'3 2.5
2014-Oct-10 17:33N 47°11' W 122°40'0 0.1
2014-Oct-10 16:33N 47°11' W 122°40'1 0.7
2014-Oct-10 15:34N 47°11' W 122°41'0 0.0
2014-Oct-10 14:33N 47°11' W 122°41'3 3.1
2014-Oct-10 13:34N 47°11' W 122°36'0 0.2
2014-Oct-10 12:33N 47°10' W 122°36'1 0.2
2014-Oct-10 04:33N 47°10' W 122°38'1 1.1
2014-Oct-10 03:33N 47°11' W 122°37'1 1.2
2014-Oct-10 02:33N 47°11' W 122°39'2 2.1
2014-Oct-10 01:33N 47°10' W 122°36'1 1.2
2014-Oct-10 00:33N 47°11' W 122°38'2 1.8
2014-Oct-09 23:33N 47°11' W 122°41'0 0.0
2014-Oct-09 22:33N 47°11' W 122°41'0 0.0
2014-Oct-09 21:33N 47°11' W 122°41'3 3.0
2014-Oct-09 20:33N 47°10' W 122°36'3 2.7
2014-Oct-09 19:33N 47°11' W 122°40'3 2.6
2014-Oct-09 18:32N 47°10' W 122°36'3 2.6
2014-Oct-09 17:33N 47°11' W 122°40'0 0.1
2014-Oct-09 16:33N 47°11' W 122°40'0 0.0
2014-Oct-09 15:33N 47°11' W 122°40'0 0.2
2014-Oct-09 14:33N 47°11' W 122°40'2 2.3
2014-Oct-09 13:33N 47°11' W 122°36'0 0.1
2014-Oct-09 12:33N 47°10' W 122°36'0 0.0
2014-Oct-09 03:16N 47°10' W 122°36'0 0.3
2014-Oct-09 02:33N 47°11' W 122°36'0 0.2
2014-Oct-09 01:34N 47°11' W 122°37'3 2.3
2014-Oct-09 00:26N 47°11' W 122°40'0 0.1
2014-Oct-08 23:29N 47°11' W 122°41'0 0.0
2014-Oct-08 22:32N 47°11' W 122°41'0 0.0
2014-Oct-08 21:33N 47°11' W 122°41'3 3.0
2014-Oct-08 20:32N 47°10' W 122°36'3 2.6
2014-Oct-08 19:34N 47°11' W 122°40'3 2.5
2014-Oct-08 18:33N 47°10' W 122°36'2 2.5
2014-Oct-08 17:33N 47°11' W 122°40'0 0.1
2014-Oct-08 16:33N 47°11' W 122°40'0 0.1
2014-Oct-08 15:34N 47°11' W 122°40'0 0.2
2014-Oct-08 14:32N 47°11' W 122°40'3 2.6
2014-Oct-08 13:33N 47°10' W 122°36'0 0.0
2014-Oct-08 12:34N 47°10' W 122°36'0 0.0
2014-Oct-08 03:21N 47°10' W 122°36'0 0.6
2014-Oct-08 02:33N 47°11' W 122°37'0 0.4
2014-Oct-08 01:32N 47°11' W 122°36'3 3.0
2014-Oct-08 00:34N 47°11' W 122°41'0 0.0
2014-Oct-07 23:30N 47°11' W 122°41'0 0.0
2014-Oct-07 22:32N 47°11' W 122°41'0 0.0
2014-Oct-07 21:32N 47°11' W 122°41'3 3.0
2014-Oct-07 20:31N 47°10' W 122°36'2 2.4
2014-Oct-07 19:33N 47°11' W 122°40'2 2.3
2014-Oct-07 18:33N 47°10' W 122°36'1 0.8
2014-Oct-07 17:33N 47°10' W 122°37'2 2.4
2014-Oct-07 16:33N 47°11' W 122°41'0 0.0
2014-Oct-07 15:33N 47°11' W 122°41'0 0.0
2014-Oct-07 14:33N 47°11' W 122°41'3 3.0
2014-Oct-07 13:33N 47°10' W 122°36'0 0.0
2014-Oct-07 03:20N 47°10' W 122°36'1 0.7
2014-Oct-07 02:33N 47°11' W 122°37'0 0.4
2014-Oct-07 01:32N 47°11' W 122°36'3 2.9
2014-Oct-07 00:33N 47°11' W 122°41'0 0.0
2014-Oct-06 23:33N 47°11' W 122°41'0 0.0
2014-Oct-06 22:29N 47°11' W 122°41'0 0.0
2014-Oct-06 21:33N 47°11' W 122°41'3 2.9
2014-Oct-06 20:30N 47°10' W 122°36'2 2.6
2014-Oct-06 19:33N 47°11' W 122°40'2 2.5
2014-Oct-06 18:33N 47°10' W 122°36'2 2.4
2014-Oct-06 17:33N 47°11' W 122°40'0 0.5
2014-Oct-06 16:33N 47°11' W 122°40'0 0.4
2014-Oct-06 15:33N 47°11' W 122°40'0 0.1
2014-Oct-06 14:33N 47°11' W 122°40'2 2.4
2014-Oct-06 13:33N 47°10' W 122°36'0 0.0
2014-Oct-06 12:28N 47°10' W 122°36'0 0.0
2014-Oct-06 11:30N 47°10' W 122°36'0 0.0
2014-Oct-06 10:32N 47°10' W 122°36'0 0.0
2014-Oct-06 09:18N 47°10' W 122°36'0 0.0
2014-Oct-06 06:19N 47°10' W 122°36'1 0.4
2014-Oct-06 04:33N 47°10' W 122°37'1 0.6
2014-Oct-06 03:16N 47°10' W 122°36'1 0.9
2014-Oct-06 02:33N 47°11' W 122°37'0 0.2
2014-Oct-06 01:33N 47°10' W 122°37'3 2.6
2014-Oct-06 00:33N 47°11' W 122°41'0 0.0
2014-Oct-05 23:33N 47°11' W 122°41'0 0.0
2014-Oct-05 22:26N 47°11' W 122°41'0 0.0
2014-Oct-05 21:32N 47°11' W 122°41'3 3.1
2014-Oct-05 20:33N 47°10' W 122°36'3 2.6
2014-Oct-05 19:33N 47°11' W 122°40'3 2.5
2014-Oct-05 18:31N 47°10' W 122°36'3 2.6
2014-Oct-05 17:32N 47°11' W 122°40'0 0.1
2014-Oct-05 16:33N 47°11' W 122°40'0 0.1
2014-Oct-05 15:33N 47°11' W 122°40'0 0.0
2014-Oct-05 14:33N 47°11' W 122°40'2 2.2
2014-Oct-05 13:29N 47°10' W 122°36'0 0.0
2014-Oct-05 12:32N 47°10' W 122°36'0 0.0
2014-Oct-05 11:32N 47°10' W 122°36'0 0.0
2014-Oct-05 10:33N 47°10' W 122°36'0 0.0
2014-Oct-05 09:33N 47°10' W 122°36'0 0.0
2014-Oct-05 08:32N 47°10' W 122°36'0 0.0
2014-Oct-05 07:27N 47°10' W 122°36'0 0.0
2014-Oct-05 06:33N 47°10' W 122°36'3 2.5
2014-Oct-05 05:33N 47°11' W 122°40'3 2.5
2014-Oct-05 04:33N 47°10' W 122°36'0 0.1
2014-Oct-05 03:15N 47°11' W 122°36'0 0.5
2014-Oct-05 02:32N 47°11' W 122°37'0 0.0
2014-Oct-05 01:33N 47°11' W 122°37'3 2.7
2014-Oct-05 00:33N 47°11' W 122°41'0 0.0
2014-Oct-04 23:33N 47°11' W 122°41'0 0.0
2014-Oct-04 22:33N 47°11' W 122°41'0 0.0
2014-Oct-04 21:32N 47°11' W 122°41'3 3.1
2014-Oct-04 20:33N 47°10' W 122°36'3 2.6
2014-Oct-04 19:33N 47°11' W 122°40'3 2.0
2014-Oct-04 18:15N 47°10' W 122°36'2 3.6
2014-Oct-04 17:33N 47°11' W 122°40'0 0.1
2014-Oct-04 16:33N 47°11' W 122°40'0 0.3
2014-Oct-04 15:32N 47°11' W 122°40'0 0.2
2014-Oct-04 14:32N 47°11' W 122°40'3 2.5
2014-Oct-04 13:31N 47°10' W 122°36'0 0.0
2014-Oct-04 11:32N 47°10' W 122°36'0 0.0
2014-Oct-04 10:33N 47°10' W 122°36'0 0.0
2014-Oct-04 09:33N 47°10' W 122°36'0 0.0
2014-Oct-04 08:24N 47°10' W 122°36'0 0.0
2014-Oct-04 07:33N 47°10' W 122°36'3 1.3
2014-Oct-04 05:33N 47°11' W 122°40'3 2.3
2014-Oct-04 04:28N 47°10' W 122°36'0 0.0
2014-Oct-04 03:33N 47°10' W 122°36'0 0.2
2014-Oct-04 02:33N 47°11' W 122°36'0 0.0
2014-Oct-04 01:33N 47°11' W 122°37'3 2.8
2014-Oct-04 00:33N 47°11' W 122°41'0 0.1
2014-Oct-03 23:33N 47°11' W 122°40'0 0.1
2014-Oct-03 22:33N 47°11' W 122°41'0 0.0
2014-Oct-03 21:32N 47°11' W 122°41'  

Dump ship's entire track history